Gloversville, New York
Current Conditions -  °F | °C
As of 3:55 PM on Tuesday 27 Jan 2015 (Local Time) from KNY0 Reporting Station
Overcast Overcast  
Wind Chill:   Ceiling: 2000
Heat Index: 14°   Visibility: 1.5mi
Dew Point: 10°   Wind: 8mph
Humidity: 83%   Direction: 270°W
Pressure: 29.76"   Gusts: NA
Location:  43.06°N, 74.34°W
Report Text: KNY0 272055Z AUTO 27007KT 1 1/2SM BKN020 OVC027 M10/M12 A2976 RMK AO2 T10991123
Loading
Personal Weather Stations






























Interactive Weather Map New forecast layout! Learn more

10-Day Weather Forecast

Advertisements
Track Severe Weather on mobile